sensor_id;sensor_type;location;lat;lon;timestamp;temperature;humidity
76120;DHT22;64852;48.092;-1.640;2024-03-08T00:01:35;10.00;99.90
76120;DHT22;64852;48.092;-1.640;2024-03-08T00:04:01;10.80;99.90
76120;DHT22;64852;48.092;-1.640;2024-03-08T00:06:26;9.90;99.90
76120;DHT22;64852;48.092;-1.640;2024-03-08T00:08:52;9.70;99.90
76120;DHT22;64852;48.092;-1.640;2024-03-08T00:11:17;10.70;99.90
76120;DHT22;64852;48.092;-1.640;2024-03-08T00:13:43;10.60;99.90
76120;DHT22;64852;48.092;-1.640;2024-03-08T00:16:10;11.00;99.90
76120;DHT22;64852;48.092;-1.640;2024-03-08T00:18:35;9.90;99.90
76120;DHT22;64852;48.092;-1.640;2024-03-08T00:21:01;10.10;99.90
76120;DHT22;64852;48.092;-1.640;2024-03-08T00:23:26;9.90;99.90
76120;DHT22;64852;48.092;-1.640;2024-03-08T00:25:53;9.80;99.90
76120;DHT22;64852;48.092;-1.640;2024-03-08T00:28:20;9.80;99.90
76120;DHT22;64852;48.092;-1.640;2024-03-08T00:30:45;9.80;99.90
76120;DHT22;64852;48.092;-1.640;2024-03-08T00:33:11;9.80;99.90
76120;DHT22;64852;48.092;-1.640;2024-03-08T00:35:37;10.20;99.90
76120;DHT22;64852;48.092;-1.640;2024-03-08T00:38:02;10.60;99.90
76120;DHT22;64852;48.092;-1.640;2024-03-08T00:40:28;9.80;99.90
76120;DHT22;64852;48.092;-1.640;2024-03-08T00:42:54;9.70;99.90
76120;DHT22;64852;48.092;-1.640;2024-03-08T00:45:19;9.90;99.90
76120;DHT22;64852;48.092;-1.640;2024-03-08T00:47:45;9.80;99.90
76120;DHT22;64852;48.092;-1.640;2024-03-08T00:50:10;10.70;99.90
76120;DHT22;64852;48.092;-1.640;2024-03-08T00:52:36;9.90;99.90
76120;DHT22;64852;48.092;-1.640;2024-03-08T00:55:02;10.70;99.90
76120;DHT22;64852;48.092;-1.640;2024-03-08T00:57:27;9.90;99.90
76120;DHT22;64852;48.092;-1.640;2024-03-08T00:59:53;10.30;99.90
76120;DHT22;64852;48.092;-1.640;2024-03-08T01:02:19;10.60;99.90
76120;DHT22;64852;48.092;-1.640;2024-03-08T01:04:44;9.90;99.90
76120;DHT22;64852;48.092;-1.640;2024-03-08T01:07:10;10.60;99.90
76120;DHT22;64852;48.092;-1.640;2024-03-08T01:09:35;9.90;99.90
76120;DHT22;64852;48.092;-1.640;2024-03-08T01:12:01;9.70;99.90
76120;DHT22;64852;48.092;-1.640;2024-03-08T01:14:27;9.80;99.90
76120;DHT22;64852;48.092;-1.640;2024-03-08T01:16:52;10.70;99.90
76120;DHT22;64852;48.092;-1.640;2024-03-08T01:19:18;9.80;99.90
76120;DHT22;64852;48.092;-1.640;2024-03-08T01:21:43;9.90;99.90
76120;DHT22;64852;48.092;-1.640;2024-03-08T01:24:09;10.80;99.90
76120;DHT22;64852;48.092;-1.640;2024-03-08T01:26:34;10.00;99.90
76120;DHT22;64852;48.092;-1.640;2024-03-08T01:29:00;9.90;99.90
76120;DHT22;64852;48.092;-1.640;2024-03-08T01:31:28;9.80;99.90
76120;DHT22;64852;48.092;-1.640;2024-03-08T01:33:54;9.80;99.90
76120;DHT22;64852;48.092;-1.640;2024-03-08T01:36:19;9.70;99.90
76120;DHT22;64852;48.092;-1.640;2024-03-08T01:38:45;10.40;99.90
76120;DHT22;64852;48.092;-1.640;2024-03-08T01:41:10;9.80;99.90
76120;DHT22;64852;48.092;-1.640;2024-03-08T01:43:37;10.50;99.90
76120;DHT22;64852;48.092;-1.640;2024-03-08T01:46:04;9.70;99.90
76120;DHT22;64852;48.092;-1.640;2024-03-08T01:48:30;9.80;99.90
76120;DHT22;64852;48.092;-1.640;2024-03-08T01:50:56;10.30;99.90
76120;DHT22;64852;48.092;-1.640;2024-03-08T01:53:23;10.70;99.90
76120;DHT22;64852;48.092;-1.640;2024-03-08T01:55:49;9.70;99.90
76120;DHT22;64852;48.092;-1.640;2024-03-08T01:58:15;10.10;99.90
76120;DHT22;64852;48.092;-1.640;2024-03-08T02:00:44;10.40;99.90
76120;DHT22;64852;48.092;-1.640;2024-03-08T02:03:10;10.50;99.90
76120;DHT22;64852;48.092;-1.640;2024-03-08T02:05:36;9.60;99.90
76120;DHT22;64852;48.092;-1.640;2024-03-08T02:08:01;9.80;99.90
76120;DHT22;64852;48.092;-1.640;2024-03-08T02:10:28;9.60;99.90
76120;DHT22;64852;48.092;-1.640;2024-03-08T02:12:53;10.50;99.90
76120;DHT22;64852;48.092;-1.640;2024-03-08T02:15:19;9.70;99.90
76120;DHT22;64852;48.092;-1.640;2024-03-08T02:17:45;9.50;99.90
76120;DHT22;64852;48.092;-1.640;2024-03-08T02:20:10;9.60;99.90
76120;DHT22;64852;48.092;-1.640;2024-03-08T02:22:38;9.50;99.90
76120;DHT22;64852;48.092;-1.640;2024-03-08T02:25:04;9.60;99.90
76120;DHT22;64852;48.092;-1.640;2024-03-08T02:27:30;9.50;99.90
76120;DHT22;64852;48.092;-1.640;2024-03-08T02:29:56;10.60;99.90
76120;DHT22;64852;48.092;-1.640;2024-03-08T02:32:22;9.50;99.90
76120;DHT22;64852;48.092;-1.640;2024-03-08T02:34:48;10.00;99.90
76120;DHT22;64852;48.092;-1.640;2024-03-08T02:37:15;10.50;99.90
76120;DHT22;64852;48.092;-1.640;2024-03-08T02:39:40;9.70;99.90
76120;DHT22;64852;48.092;-1.640;2024-03-08T02:42:06;9.60;99.90
76120;DHT22;64852;48.092;-1.640;2024-03-08T02:44:32;9.40;99.90
76120;DHT22;64852;48.092;-1.640;2024-03-08T02:46:59;10.50;99.90
76120;DHT22;64852;48.092;-1.640;2024-03-08T02:49:25;9.70;99.90
76120;DHT22;64852;48.092;-1.640;2024-03-08T02:51:52;10.20;99.90
76120;DHT22;64852;48.092;-1.640;2024-03-08T02:54:17;10.50;99.90
76120;DHT22;64852;48.092;-1.640;2024-03-08T02:56:44;9.30;99.90
76120;DHT22;64852;48.092;-1.640;2024-03-08T02:59:12;9.90;99.90
76120;DHT22;64852;48.092;-1.640;2024-03-08T03:01:37;10.30;99.90
76120;DHT22;64852;48.092;-1.640;2024-03-08T03:04:03;9.90;99.90
76120;DHT22;64852;48.092;-1.640;2024-03-08T03:06:29;9.30;99.90
76120;DHT22;64852;48.092;-1.640;2024-03-08T03:08:54;9.30;99.90
76120;DHT22;64852;48.092;-1.640;2024-03-08T03:11:22;10.50;99.90
76120;DHT22;64852;48.092;-1.640;2024-03-08T03:13:48;9.80;99.90
76120;DHT22;64852;48.092;-1.640;2024-03-08T03:16:19;9.20;99.90
76120;DHT22;64852;48.092;-1.640;2024-03-08T03:18:45;9.20;99.90
76120;DHT22;64852;48.092;-1.640;2024-03-08T03:21:11;9.40;99.90
76120;DHT22;64852;48.092;-1.640;2024-03-08T03:23:38;9.20;99.90
76120;DHT22;64852;48.092;-1.640;2024-03-08T03:26:05;10.20;99.90
76120;DHT22;64852;48.092;-1.640;2024-03-08T03:28:32;9.10;99.90
76120;DHT22;64852;48.092;-1.640;2024-03-08T03:30:58;10.00;99.90
76120;DHT22;64852;48.092;-1.640;2024-03-08T03:33:24;10.00;99.90
76120;DHT22;64852;48.092;-1.640;2024-03-08T03:35:50;9.30;99.90
76120;DHT22;64852;48.092;-1.640;2024-03-08T03:38:17;9.70;99.90
76120;DHT22;64852;48.092;-1.640;2024-03-08T03:40:42;10.10;99.90
76120;DHT22;64852;48.092;-1.640;2024-03-08T03:43:10;10.10;99.90
76120;DHT22;64852;48.092;-1.640;2024-03-08T03:45:36;9.20;99.90
76120;DHT22;64852;48.092;-1.640;2024-03-08T03:48:05;9.90;99.90
76120;DHT22;64852;48.092;-1.640;2024-03-08T03:50:31;9.10;99.90
76120;DHT22;64852;48.092;-1.640;2024-03-08T03:52:59;9.60;99.90
76120;DHT22;64852;48.092;-1.640;2024-03-08T03:55:25;9.60;99.90
76120;DHT22;64852;48.092;-1.640;2024-03-08T03:57:50;8.90;99.90
76120;DHT22;64852;48.092;-1.640;2024-03-08T04:00:16;10.10;99.90
76120;DHT22;64852;48.092;-1.640;2024-03-08T04:02:42;8.90;99.90
76120;DHT22;64852;48.092;-1.640;2024-03-08T04:05:08;10.20;99.90
76120;DHT22;64852;48.092;-1.640;2024-03-08T04:07:34;8.80;99.90
76120;DHT22;64852;48.092;-1.640;2024-03-08T04:10:00;8.80;99.90
76120;DHT22;64852;48.092;-1.640;2024-03-08T04:12:25;8.90;99.90
76120;DHT22;64852;48.092;-1.640;2024-03-08T04:14:51;9.60;99.90
76120;DHT22;64852;48.092;-1.640;2024-03-08T04:17:16;8.90;99.90
76120;DHT22;64852;48.092;-1.640;2024-03-08T04:19:43;8.80;99.90
76120;DHT22;64852;48.092;-1.640;2024-03-08T04:22:09;8.90;99.90
76120;DHT22;64852;48.092;-1.640;2024-03-08T04:24:34;8.80;99.90
76120;DHT22;64852;48.092;-1.640;2024-03-08T04:27:00;9.70;99.90
76120;DHT22;64852;48.092;-1.640;2024-03-08T04:29:26;9.80;99.90
76120;DHT22;64852;48.092;-1.640;2024-03-08T04:31:52;10.20;99.90
76120;DHT22;64852;48.092;-1.640;2024-03-08T04:34:21;9.30;99.90
76120;DHT22;64852;48.092;-1.640;2024-03-08T04:36:47;9.30;99.90
76120;DHT22;64852;48.092;-1.640;2024-03-08T04:39:13;9.60;99.90
76120;DHT22;64852;48.092;-1.640;2024-03-08T04:41:39;8.80;99.90
76120;DHT22;64852;48.092;-1.640;2024-03-08T04:44:04;8.70;99.90
76120;DHT22;64852;48.092;-1.640;2024-03-08T04:46:30;9.40;99.90
76120;DHT22;64852;48.092;-1.640;2024-03-08T04:48:56;8.80;99.90
76120;DHT22;64852;48.092;-1.640;2024-03-08T04:51:22;9.50;99.90
76120;DHT22;64852;48.092;-1.640;2024-03-08T04:53:47;9.30;99.90
76120;DHT22;64852;48.092;-1.640;2024-03-08T04:56:14;8.90;99.90
76120;DHT22;64852;48.092;-1.640;2024-03-08T04:58:40;9.10;99.90
76120;DHT22;64852;48.092;-1.640;2024-03-08T05:01:05;8.80;99.90
76120;DHT22;64852;48.092;-1.640;2024-03-08T05:03:31;9.20;99.90
76120;DHT22;64852;48.092;-1.640;2024-03-08T05:05:56;9.60;99.90
76120;DHT22;64852;48.092;-1.640;2024-03-08T05:08:22;9.80;99.90
76120;DHT22;64852;48.092;-1.640;2024-03-08T05:10:47;8.80;99.90
76120;DHT22;64852;48.092;-1.640;2024-03-08T05:13:13;8.70;99.90
76120;DHT22;64852;48.092;-1.640;2024-03-08T05:15:38;8.80;99.90
76120;DHT22;64852;48.092;-1.640;2024-03-08T05:18:04;9.60;99.90
76120;DHT22;64852;48.092;-1.640;2024-03-08T05:20:30;8.70;99.90
76120;DHT22;64852;48.092;-1.640;2024-03-08T05:22:56;8.90;99.90
76120;DHT22;64852;48.092;-1.640;2024-03-08T05:25:24;8.70;99.90
76120;DHT22;64852;48.092;-1.640;2024-03-08T05:27:49;9.00;99.90
76120;DHT22;64852;48.092;-1.640;2024-03-08T05:30:15;8.60;99.90
76120;DHT22;64852;48.092;-1.640;2024-03-08T05:32:43;8.60;99.90
76120;DHT22;64852;48.092;-1.640;2024-03-08T05:35:12;8.60;99.90
76120;DHT22;64852;48.092;-1.640;2024-03-08T05:37:40;9.00;99.90
76120;DHT22;64852;48.092;-1.640;2024-03-08T05:40:06;8.90;99.90
76120;DHT22;64852;48.092;-1.640;2024-03-08T05:42:34;8.70;99.90
76120;DHT22;64852;48.092;-1.640;2024-03-08T05:45:00;9.30;99.90
76120;DHT22;64852;48.092;-1.640;2024-03-08T05:47:26;9.80;99.90
76120;DHT22;64852;48.092;-1.640;2024-03-08T05:49:51;8.50;99.90
76120;DHT22;64852;48.092;-1.640;2024-03-08T05:52:18;8.80;99.90
76120;DHT22;64852;48.092;-1.640;2024-03-08T05:54:44;8.60;99.90
76120;DHT22;64852;48.092;-1.640;2024-03-08T05:57:11;9.00;99.90
76120;DHT22;64852;48.092;-1.640;2024-03-08T05:59:36;8.70;99.90
76120;DHT22;64852;48.092;-1.640;2024-03-08T06:02:02;8.70;99.90
76120;DHT22;64852;48.092;-1.640;2024-03-08T06:04:28;9.10;99.90
76120;DHT22;64852;48.092;-1.640;2024-03-08T06:06:54;8.60;99.90
76120;DHT22;64852;48.092;-1.640;2024-03-08T06:09:22;8.80;99.90
76120;DHT22;64852;48.092;-1.640;2024-03-08T06:11:48;9.50;99.90
76120;DHT22;64852;48.092;-1.640;2024-03-08T06:14:14;9.90;99.90
76120;DHT22;64852;48.092;-1.640;2024-03-08T06:16:47;8.70;99.90
76120;DHT22;64852;48.092;-1.640;2024-03-08T06:19:13;8.70;99.90
76120;DHT22;64852;48.092;-1.640;2024-03-08T06:21:38;8.70;99.90
76120;DHT22;64852;48.092;-1.640;2024-03-08T06:24:04;8.70;99.90
76120;DHT22;64852;48.092;-1.640;2024-03-08T06:26:30;8.70;99.90
76120;DHT22;64852;48.092;-1.640;2024-03-08T06:28:55;9.40;99.90
76120;DHT22;64852;48.092;-1.640;2024-03-08T06:31:21;9.50;99.90
76120;DHT22;64852;48.092;-1.640;2024-03-08T06:33:46;9.70;99.90
76120;DHT22;64852;48.092;-1.640;2024-03-08T06:36:15;9.20;99.90
76120;DHT22;64852;48.092;-1.640;2024-03-08T06:38:47;8.60;99.90
76120;DHT22;64852;48.092;-1.640;2024-03-08T06:41:12;8.60;99.90
76120;DHT22;64852;48.092;-1.640;2024-03-08T06:43:44;8.60;99.90
76120;DHT22;64852;48.092;-1.640;2024-03-08T06:46:10;8.50;99.90
76120;DHT22;64852;48.092;-1.640;2024-03-08T06:48:40;8.50;99.90
76120;DHT22;64852;48.092;-1.640;2024-03-08T06:51:06;9.20;99.90
76120;DHT22;64852;48.092;-1.640;2024-03-08T06:53:32;8.50;99.90
76120;DHT22;64852;48.092;-1.640;2024-03-08T06:55:58;8.50;99.90
76120;DHT22;64852;48.092;-1.640;2024-03-08T06:58:23;7.50;99.90
76120;DHT22;64852;48.092;-1.640;2024-03-08T07:00:49;8.50;99.90
76120;DHT22;64852;48.092;-1.640;2024-03-08T07:03:18;9.10;99.90
76120;DHT22;64852;48.092;-1.640;2024-03-08T07:05:43;8.60;99.90
76120;DHT22;64852;48.092;-1.640;2024-03-08T07:08:09;8.50;99.90
76120;DHT22;64852;48.092;-1.640;2024-03-08T07:10:34;8.50;99.90
76120;DHT22;64852;48.092;-1.640;2024-03-08T07:13:00;8.50;99.90
76120;DHT22;64852;48.092;-1.640;2024-03-08T07:15:27;8.50;99.90
76120;DHT22;64852;48.092;-1.640;2024-03-08T07:17:53;9.50;99.90
76120;DHT22;64852;48.092;-1.640;2024-03-08T07:20:19;10.60;99.90
76120;DHT22;64852;48.092;-1.640;2024-03-08T07:22:45;8.80;99.90
76120;DHT22;64852;48.092;-1.640;2024-03-08T07:25:13;8.40;99.90
76120;DHT22;64852;48.092;-1.640;2024-03-08T07:27:52;8.70;99.90
76120;DHT22;64852;48.092;-1.640;2024-03-08T07:30:18;8.50;99.90
76120;DHT22;64852;48.092;-1.640;2024-03-08T07:33:02;8.90;99.90
76120;DHT22;64852;48.092;-1.640;2024-03-08T07:35:28;8.50;99.90
76120;DHT22;64852;48.092;-1.640;2024-03-08T07:37:54;9.50;99.90
76120;DHT22;64852;48.092;-1.640;2024-03-08T07:40:20;8.60;99.90
76120;DHT22;64852;48.092;-1.640;2024-03-08T07:42:46;9.10;99.90
76120;DHT22;64852;48.092;-1.640;2024-03-08T07:45:11;9.20;99.90
76120;DHT22;64852;48.092;-1.640;2024-03-08T07:47:38;8.60;99.90
76120;DHT22;64852;48.092;-1.640;2024-03-08T07:50:03;9.40;99.90
76120;DHT22;64852;48.092;-1.640;2024-03-08T07:52:29;8.60;99.90
76120;DHT22;64852;48.092;-1.640;2024-03-08T07:54:55;8.70;99.90
76120;DHT22;64852;48.092;-1.640;2024-03-08T07:57:20;9.30;99.90
76120;DHT22;64852;48.092;-1.640;2024-03-08T07:59:46;8.80;99.90
76120;DHT22;64852;48.092;-1.640;2024-03-08T08:02:12;8.60;99.90
76120;DHT22;64852;48.092;-1.640;2024-03-08T08:04:37;9.50;99.90
76120;DHT22;64852;48.092;-1.640;2024-03-08T08:07:04;9.30;99.90
76120;DHT22;64852;48.092;-1.640;2024-03-08T08:09:29;7.80;99.90
76120;DHT22;64852;48.092;-1.640;2024-03-08T08:12:00;8.90;99.90
76120;DHT22;64852;48.092;-1.640;2024-03-08T08:14:27;10.00;99.90
76120;DHT22;64852;48.092;-1.640;2024-03-08T08:16:52;9.00;99.90
76120;DHT22;64852;48.092;-1.640;2024-03-08T08:19:18;9.00;99.90
76120;DHT22;64852;48.092;-1.640;2024-03-08T08:21:44;10.30;99.90
76120;DHT22;64852;48.092;-1.640;2024-03-08T08:24:09;9.20;99.90
76120;DHT22;64852;48.092;-1.640;2024-03-08T08:26:36;9.10;99.90
76120;DHT22;64852;48.092;-1.640;2024-03-08T08:29:01;10.10;99.90
76120;DHT22;64852;48.092;-1.640;2024-03-08T08:31:27;9.80;99.90
76120;DHT22;64852;48.092;-1.640;2024-03-08T08:33:52;9.40;99.90
76120;DHT22;64852;48.092;-1.640;2024-03-08T08:36:24;9.40;99.90
76120;DHT22;64852;48.092;-1.640;2024-03-08T08:38:49;9.30;99.90
76120;DHT22;64852;48.092;-1.640;2024-03-08T08:41:15;10.50;99.90
76120;DHT22;64852;48.092;-1.640;2024-03-08T08:43:42;9.50;99.90
76120;DHT22;64852;48.092;-1.640;2024-03-08T08:46:12;10.60;99.90
76120;DHT22;64852;48.092;-1.640;2024-03-08T08:48:39;9.50;99.90
76120;DHT22;64852;48.092;-1.640;2024-03-08T08:51:09;10.70;99.90
76120;DHT22;64852;48.092;-1.640;2024-03-08T08:53:41;9.60;99.90
76120;DHT22;64852;48.092;-1.640;2024-03-08T08:56:11;9.60;99.90
76120;DHT22;64852;48.092;-1.640;2024-03-08T08:58:44;10.20;99.90
76120;DHT22;64852;48.092;-1.640;2024-03-08T09:01:10;9.90;99.90
76120;DHT22;64852;48.092;-1.640;2024-03-08T09:03:36;10.90;99.90
76120;DHT22;64852;48.092;-1.640;2024-03-08T09:06:05;10.30;99.90
76120;DHT22;64852;48.092;-1.640;2024-03-08T09:08:30;9.90;99.90
76120;DHT22;64852;48.092;-1.640;2024-03-08T09:10:56;10.00;99.90
76120;DHT22;64852;48.092;-1.640;2024-03-08T09:13:21;10.10;99.90
76120;DHT22;64852;48.092;-1.640;2024-03-08T09:15:48;11.20;99.90
76120;DHT22;64852;48.092;-1.640;2024-03-08T09:18:13;10.10;99.90
76120;DHT22;64852;48.092;-1.640;2024-03-08T09:20:39;10.20;99.90
76120;DHT22;64852;48.092;-1.640;2024-03-08T09:23:06;10.30;99.90
76120;DHT22;64852;48.092;-1.640;2024-03-08T09:25:31;10.20;99.90
76120;DHT22;64852;48.092;-1.640;2024-03-08T09:27:58;10.80;99.90
76120;DHT22;64852;48.092;-1.640;2024-03-08T09:30:24;10.40;99.90
76120;DHT22;64852;48.092;-1.640;2024-03-08T09:32:49;11.20;99.90
76120;DHT22;64852;48.092;-1.640;2024-03-08T09:35:16;10.60;99.90
76120;DHT22;64852;48.092;-1.640;2024-03-08T09:37:42;10.50;99.90
76120;DHT22;64852;48.092;-1.640;2024-03-08T09:40:07;10.70;99.90
76120;DHT22;64852;48.092;-1.640;2024-03-08T09:42:43;10.70;99.90
76120;DHT22;64852;48.092;-1.640;2024-03-08T09:45:10;10.80;99.90
76120;DHT22;64852;48.092;-1.640;2024-03-08T09:47:41;11.20;99.90
76120;DHT22;64852;48.092;-1.640;2024-03-08T09:50:09;10.90;99.90
76120;DHT22;64852;48.092;-1.640;2024-03-08T09:52:38;11.00;99.90
76120;DHT22;64852;48.092;-1.640;2024-03-08T09:55:05;11.10;99.90
76120;DHT22;64852;48.092;-1.640;2024-03-08T09:57:31;11.20;99.90
76120;DHT22;64852;48.092;-1.640;2024-03-08T09:59:57;11.60;99.90
76120;DHT22;64852;48.092;-1.640;2024-03-08T10:02:23;11.30;99.90
76120;DHT22;64852;48.092;-1.640;2024-03-08T10:04:48;11.40;99.90
76120;DHT22;64852;48.092;-1.640;2024-03-08T10:07:14;11.40;99.90
76120;DHT22;64852;48.092;-1.640;2024-03-08T10:09:39;11.50;99.90
76120;DHT22;64852;48.092;-1.640;2024-03-08T10:12:06;11.50;99.90
76120;DHT22;64852;48.092;-1.640;2024-03-08T10:14:32;11.70;99.90
76120;DHT22;64852;48.092;-1.640;2024-03-08T10:16:58;11.80;99.90
76120;DHT22;64852;48.092;-1.640;2024-03-08T10:19:26;11.90;99.90
76120;DHT22;64852;48.092;-1.640;2024-03-08T10:21:53;11.90;99.90
76120;DHT22;64852;48.092;-1.640;2024-03-08T10:24:25;12.00;99.90
76120;DHT22;64852;48.092;-1.640;2024-03-08T10:26:58;12.10;99.90
76120;DHT22;64852;48.092;-1.640;2024-03-08T10:29:24;12.20;99.90
76120;DHT22;64852;48.092;-1.640;2024-03-08T10:31:50;12.20;99.90
76120;DHT22;64852;48.092;-1.640;2024-03-08T10:34:16;12.30;99.90
76120;DHT22;64852;48.092;-1.640;2024-03-08T10:36:42;12.30;99.90
76120;DHT22;64852;48.092;-1.640;2024-03-08T10:39:12;12.50;99.90
76120;DHT22;64852;48.092;-1.640;2024-03-08T10:41:42;12.60;99.90
76120;DHT22;64852;48.092;-1.640;2024-03-08T10:44:17;12.70;99.90
76120;DHT22;64852;48.092;-1.640;2024-03-08T10:49:24;13.00;99.90
76120;DHT22;64852;48.092;-1.640;2024-03-08T10:51:50;13.00;99.90
76120;DHT22;64852;48.092;-1.640;2024-03-08T10:54:17;13.00;99.90
76120;DHT22;64852;48.092;-1.640;2024-03-08T10:56:43;13.30;99.90
76120;DHT22;64852;48.092;-1.640;2024-03-08T10:59:09;13.30;99.90
76120;DHT22;64852;48.092;-1.640;2024-03-08T11:01:35;13.40;99.90
76120;DHT22;64852;48.092;-1.640;2024-03-08T11:04:01;13.50;99.90
76120;DHT22;64852;48.092;-1.640;2024-03-08T11:06:30;13.40;99.90
76120;DHT22;64852;48.092;-1.640;2024-03-08T11:08:57;13.40;99.90
76120;DHT22;64852;48.092;-1.640;2024-03-08T11:11:31;13.40;99.90
76120;DHT22;64852;48.092;-1.640;2024-03-08T11:13:56;13.50;99.90
76120;DHT22;64852;48.092;-1.640;2024-03-08T11:18:58;13.50;99.90
76120;DHT22;64852;48.092;-1.640;2024-03-08T11:21:32;13.60;99.90
76120;DHT22;64852;48.092;-1.640;2024-03-08T11:24:08;13.70;99.90
76120;DHT22;64852;48.092;-1.640;2024-03-08T11:26:37;13.50;99.90
76120;DHT22;64852;48.092;-1.640;2024-03-08T11:31:48;13.50;99.90
76120;DHT22;64852;48.092;-1.640;2024-03-08T11:34:16;13.60;99.90
76120;DHT22;64852;48.092;-1.640;2024-03-08T11:36:42;13.60;99.90
76120;DHT22;64852;48.092;-1.640;2024-03-08T11:39:07;13.50;99.90
76120;DHT22;64852;48.092;-1.640;2024-03-08T11:41:39;13.60;99.90
76120;DHT22;64852;48.092;-1.640;2024-03-08T11:44:07;13.80;99.90
76120;DHT22;64852;48.092;-1.640;2024-03-08T11:46:33;13.90;99.90
76120;DHT22;64852;48.092;-1.640;2024-03-08T11:48:59;14.20;99.90
76120;DHT22;64852;48.092;-1.640;2024-03-08T11:51:26;14.20;99.90
76120;DHT22;64852;48.092;-1.640;2024-03-08T11:53:51;14.20;99.90
76120;DHT22;64852;48.092;-1.640;2024-03-08T11:56:17;14.20;99.90
76120;DHT22;64852;48.092;-1.640;2024-03-08T11:58:55;14.20;99.90
76120;DHT22;64852;48.092;-1.640;2024-03-08T12:01:24;14.10;99.90
76120;DHT22;64852;48.092;-1.640;2024-03-08T12:03:53;14.00;99.90
76120;DHT22;64852;48.092;-1.640;2024-03-08T12:06:19;14.00;99.90
76120;DHT22;64852;48.092;-1.640;2024-03-08T12:08:45;14.00;99.90
76120;DHT22;64852;48.092;-1.640;2024-03-08T12:11:14;14.10;99.90
76120;DHT22;64852;48.092;-1.640;2024-03-08T12:13:41;14.00;99.90
76120;DHT22;64852;48.092;-1.640;2024-03-08T12:16:06;14.10;99.90
76120;DHT22;64852;48.092;-1.640;2024-03-08T12:18:34;14.20;99.90
76120;DHT22;64852;48.092;-1.640;2024-03-08T12:21:09;14.10;99.90
76120;DHT22;64852;48.092;-1.640;2024-03-08T12:23:36;14.10;99.90
76120;DHT22;64852;48.092;-1.640;2024-03-08T12:28:38;13.80;99.90
76120;DHT22;64852;48.092;-1.640;2024-03-08T12:31:04;13.80;99.90
76120;DHT22;64852;48.092;-1.640;2024-03-08T12:33:51;13.70;99.90
76120;DHT22;64852;48.092;-1.640;2024-03-08T12:36:17;13.80;99.90
76120;DHT22;64852;48.092;-1.640;2024-03-08T12:38:43;13.70;99.90
76120;DHT22;64852;48.092;-1.640;2024-03-08T12:41:09;13.80;99.90
76120;DHT22;64852;48.092;-1.640;2024-03-08T12:43:34;12.90;99.90
76120;DHT22;64852;48.092;-1.640;2024-03-08T12:46:00;14.00;99.90
76120;DHT22;64852;48.092;-1.640;2024-03-08T12:48:25;14.20;99.90
76120;DHT22;64852;48.092;-1.640;2024-03-08T12:50:51;14.40;99.90
76120;DHT22;64852;48.092;-1.640;2024-03-08T12:53:17;14.80;99.90
76120;DHT22;64852;48.092;-1.640;2024-03-08T12:55:43;15.30;99.90
76120;DHT22;64852;48.092;-1.640;2024-03-08T12:58:09;15.80;99.90
76120;DHT22;64852;48.092;-1.640;2024-03-08T13:00:34;16.10;99.90
76120;DHT22;64852;48.092;-1.640;2024-03-08T13:03:02;16.20;99.90
76120;DHT22;64852;48.092;-1.640;2024-03-08T13:05:28;16.60;99.90
76120;DHT22;64852;48.092;-1.640;2024-03-08T13:07:53;17.00;99.90
76120;DHT22;64852;48.092;-1.640;2024-03-08T13:10:20;17.60;99.90
76120;DHT22;64852;48.092;-1.640;2024-03-08T13:12:45;18.10;99.90
76120;DHT22;64852;48.092;-1.640;2024-03-08T13:15:11;18.40;99.90
76120;DHT22;64852;48.092;-1.640;2024-03-08T13:17:41;18.80;99.90
76120;DHT22;64852;48.092;-1.640;2024-03-08T13:20:08;19.30;99.90
76120;DHT22;64852;48.092;-1.640;2024-03-08T13:22:33;19.50;99.90
76120;DHT22;64852;48.092;-1.640;2024-03-08T13:24:59;19.20;92.40
76120;DHT22;64852;48.092;-1.640;2024-03-08T13:27:29;18.80;99.00
76120;DHT22;64852;48.092;-1.640;2024-03-08T13:29:54;18.40;99.90
76120;DHT22;64852;48.092;-1.640;2024-03-08T13:32:21;18.30;99.90
76120;DHT22;64852;48.092;-1.640;2024-03-08T13:34:47;18.20;99.90
76120;DHT22;64852;48.092;-1.640;2024-03-08T13:37:13;18.20;99.90
76120;DHT22;64852;48.092;-1.640;2024-03-08T13:39:41;18.40;99.90
76120;DHT22;64852;48.092;-1.640;2024-03-08T13:42:15;18.70;99.90
76120;DHT22;64852;48.092;-1.640;2024-03-08T13:44:48;18.70;99.90
76120;DHT22;64852;48.092;-1.640;2024-03-08T13:47:16;18.50;86.30
76120;DHT22;64852;48.092;-1.640;2024-03-08T13:49:45;18.00;90.30
76120;DHT22;64852;48.092;-1.640;2024-03-08T13:52:11;17.70;90.90
76120;DHT22;64852;48.092;-1.640;2024-03-08T13:54:40;17.20;94.30
76120;DHT22;64852;48.092;-1.640;2024-03-08T13:57:06;17.10;96.70
76120;DHT22;64852;48.092;-1.640;2024-03-08T13:59:32;17.00;97.10
76120;DHT22;64852;48.092;-1.640;2024-03-08T14:01:59;16.90;96.70
76120;DHT22;64852;48.092;-1.640;2024-03-08T14:04:25;16.80;98.00
76120;DHT22;64852;48.092;-1.640;2024-03-08T14:06:52;16.70;97.80
76120;DHT22;64852;48.092;-1.640;2024-03-08T14:09:25;16.50;96.20
76120;DHT22;64852;48.092;-1.640;2024-03-08T14:11:51;16.30;97.70
76120;DHT22;64852;48.092;-1.640;2024-03-08T14:14:19;16.30;99.00
76120;DHT22;64852;48.092;-1.640;2024-03-08T14:16:46;16.20;98.50
76120;DHT22;64852;48.092;-1.640;2024-03-08T14:19:13;16.00;98.50
76120;DHT22;64852;48.092;-1.640;2024-03-08T14:21:40;16.00;99.90
76120;DHT22;64852;48.092;-1.640;2024-03-08T14:24:08;16.00;99.90
76120;DHT22;64852;48.092;-1.640;2024-03-08T14:26:34;16.20;99.90
76120;DHT22;64852;48.092;-1.640;2024-03-08T14:28:59;16.30;99.90
76120;DHT22;64852;48.092;-1.640;2024-03-08T14:31:25;16.50;99.90
76120;DHT22;64852;48.092;-1.640;2024-03-08T14:33:51;16.50;99.90
76120;DHT22;64852;48.092;-1.640;2024-03-08T14:36:18;16.60;99.90
76120;DHT22;64852;48.092;-1.640;2024-03-08T14:38:45;16.60;99.90
76120;DHT22;64852;48.092;-1.640;2024-03-08T14:41:12;16.70;99.90
76120;DHT22;64852;48.092;-1.640;2024-03-08T14:43:39;16.80;99.90
76120;DHT22;64852;48.092;-1.640;2024-03-08T14:46:04;16.90;99.90
76120;DHT22;64852;48.092;-1.640;2024-03-08T14:48:31;16.90;99.90
76120;DHT22;64852;48.092;-1.640;2024-03-08T14:50:56;16.90;99.90
76120;DHT22;64852;48.092;-1.640;2024-03-08T14:53:22;17.00;99.90
76120;DHT22;64852;48.092;-1.640;2024-03-08T14:55:47;17.00;99.90
76120;DHT22;64852;48.092;-1.640;2024-03-08T14:58:13;16.90;99.90
76120;DHT22;64852;48.092;-1.640;2024-03-08T15:00:38;16.80;97.00
76120;DHT22;64852;48.092;-1.640;2024-03-08T15:03:07;16.70;99.90
76120;DHT22;64852;48.092;-1.640;2024-03-08T15:05:35;16.60;96.40
76120;DHT22;64852;48.092;-1.640;2024-03-08T15:08:07;16.30;97.40
76120;DHT22;64852;48.092;-1.640;2024-03-08T15:10:36;16.20;99.00
76120;DHT22;64852;48.092;-1.640;2024-03-08T15:13:01;16.10;99.90
76120;DHT22;64852;48.092;-1.640;2024-03-08T15:15:33;16.10;99.90
76120;DHT22;64852;48.092;-1.640;2024-03-08T15:17:58;16.00;99.90
76120;DHT22;64852;48.092;-1.640;2024-03-08T15:20:24;16.00;99.90
76120;DHT22;64852;48.092;-1.640;2024-03-08T15:22:50;15.90;99.90
76120;DHT22;64852;48.092;-1.640;2024-03-08T15:25:19;15.80;99.90
76120;DHT22;64852;48.092;-1.640;2024-03-08T15:27:54;15.60;99.90
76120;DHT22;64852;48.092;-1.640;2024-03-08T15:30:20;15.40;99.90